Time;durP1;ratioP1;P1;durP2;ratioP2;P2;SDS_P1;SDS_P2;PMS_P1;PMS_P2;Temp;Humidity;BMP_temperature;BMP_pressure;BME280_temperature;BME280_humidity;BME280_pressure;Samples;Min_cycle;Max_cycle;Signal;HPM_P1;HPM_P2
2022/01/30 00:00:34;;;;;;;1.90;1.40;;;6.80;99.90;;;;;;4999429;28;20273;-81
2022/01/30 00:02:59;;;;;;;1.83;1.73;;;6.80;99.90;;;;;;4999797;28;20251;-82
2022/01/30 00:05:27;;;;;;;3.43;2.07;;;;;;;;;;4999705;28;20438;-82
2022/01/30 00:07:53;;;;;;;2.88;1.45;;;6.80;99.90;;;;;;4994988;28;20205;-81
2022/01/30 00:10:19;;;;;;;2.90;2.10;;;6.70;99.90;;;;;;5002069;28;20654;-79
2022/01/30 00:15:11;;;;;;;1.97;1.80;;;6.80;99.90;;;;;;4997848;28;20456;-79
2022/01/30 00:17:46;;;;;;;1.92;1.73;;;6.80;99.90;;;;;;5022455;28;20178;-78
2022/01/30 00:20:19;;;;;;;3.58;3.05;;;6.80;99.90;;;;;;5024618;27;20177;-78
2022/01/30 00:23:08;;;;;;;2.15;1.50;;;;;;;;;;5009763;28;20176;-81
2022/01/30 00:25:45;;;;;;;2.17;1.98;;;6.80;99.90;;;;;;5004208;28;20177;-80
2022/01/30 00:28:13;;;;;;;3.33;1.80;;;6.80;99.90;;;;;;4996313;28;20648;-81
2022/01/30 00:30:38;;;;;;;4.10;2.30;;;6.80;99.90;;;;;;4999721;28;20217;-80
2022/01/30 00:33:04;;;;;;;2.57;1.90;;;;;;;;;;4998668;28;20198;-77
2022/01/30 00:35:33;;;;;;;1.87;1.70;;;6.70;99.90;;;;;;4997069;28;20183;-80
2022/01/30 00:38:00;;;;;;;2.38;2.13;;;6.70;99.90;;;;;;5000821;28;20434;-79
2022/01/30 00:40:25;;;;;;;2.47;2.13;;;6.70;99.90;;;;;;5014492;28;20221;-84
2022/01/30 00:42:51;;;;;;;6.93;2.93;;;6.60;99.90;;;;;;4996774;28;20593;-79
2022/01/30 00:45:17;;;;;;;2.80;1.80;;;6.60;99.90;;;;;;5002401;28;20187;-79
2022/01/30 00:47:42;;;;;;;2.27;2.00;;;6.70;99.90;;;;;;5016196;28;20196;-77
2022/01/30 00:50:08;;;;;;;2.37;1.67;;;6.70;99.90;;;;;;5010574;28;20199;-85
2022/01/30 00:52:34;;;;;;;1.65;1.40;;;;;;;;;;4999208;28;20247;-84
2022/01/30 00:55:00;;;;;;;1.67;1.53;;;6.70;99.90;;;;;;4998855;28;20179;-81
2022/01/30 00:57:27;;;;;;;2.23;1.73;;;6.70;99.90;;;;;;5001152;28;21159;-77
2022/01/30 00:59:53;;;;;;;2.53;1.67;;;;;;;;;;4995662;28;20260;-80
2022/01/30 01:02:18;;;;;;;2.00;1.90;;;6.70;99.90;;;;;;4997376;28;20206;-80
2022/01/30 01:04:45;;;;;;;1.90;1.70;;;6.70;99.90;;;;;;4998986;28;20263;-83
2022/01/30 01:07:17;;;;;;;2.30;2.03;;;;;;;;;;4994527;28;20217;-82
2022/01/30 01:09:51;;;;;;;1.33;1.20;;;;;;;;;;4997727;28;20553;-79
2022/01/30 01:12:45;;;;;;;2.00;1.80;;;6.70;99.90;;;;;;4998343;28;20272;-80
2022/01/30 01:23:30;;;;;;;2.58;2.35;;;6.60;99.90;;;;;;4993066;28;20201;-81
2022/01/30 01:25:57;;;;;;;3.20;3.00;;;6.60;99.90;;;;;;4997463;28;20185;-79
2022/01/30 01:28:23;;;;;;;2.38;2.08;;;6.70;99.90;;;;;;4995200;28;20271;-82
2022/01/30 01:30:49;;;;;;;4.10;2.83;;;6.60;99.90;;;;;;4996773;28;20222;-81
2022/01/30 01:33:15;;;;;;;3.73;2.43;;;6.70;99.90;;;;;;4994969;28;20531;-81
2022/01/30 01:35:41;;;;;;;4.72;2.60;;;6.60;99.90;;;;;;4993654;28;20733;-83
2022/01/30 01:38:14;;;;;;;5.83;1.90;;;;;;;;;;4994056;28;20185;-80
2022/01/30 01:40:41;;;;;;;3.22;2.47;;;6.70;99.90;;;;;;5006717;28;20449;-83
2022/01/30 01:43:07;;;;;;;4.57;3.17;;;6.70;99.90;;;;;;5007604;28;20187;-82
2022/01/30 01:45:36;;;;;;;2.40;2.08;;;6.70;99.90;;;;;;5007369;28;20266;-80
2022/01/30 01:48:10;;;;;;;2.80;2.45;;;6.60;99.90;;;;;;4990784;28;20729;-82
2022/01/30 01:50:44;;;;;;;2.45;1.25;;;6.60;99.90;;;;;;5004093;28;20895;-82
2022/01/30 01:53:12;;;;;;;2.92;2.30;;;6.70;99.90;;;;;;5000005;28;20758;-81
2022/01/30 01:55:39;;;;;;;2.30;1.77;;;6.70;99.90;;;;;;4994885;28;20187;-83
2022/01/30 01:58:05;;;;;;;1.13;1.08;;;6.70;99.90;;;;;;4992641;28;22471;-80
2022/01/30 02:00:31;;;;;;;2.20;1.40;;;;;;;;;;4996642;28;20221;-80
2022/01/30 02:02:57;;;;;;;4.65;1.50;;;;;;;;;;5011844;27;20494;-82
2022/01/30 02:05:26;;;;;;;0.90;0.90;;;;;;;;;;5000188;28;20646;-77
2022/01/30 02:10:47;;;;;;;3.22;2.38;;;6.70;99.90;;;;;;5009680;28;20197;-84
2022/01/30 02:13:58;;;;;;;2.05;1.55;;;6.80;99.90;;;;;;5005371;28;20395;-82
2022/01/30 02:25:00;;;;;;;3.40;1.75;;;6.70;99.90;;;;;;4997412;28;20278;-81
2022/01/30 02:27:32;;;;;;;3.78;1.67;;;6.60;99.90;;;;;;4995771;28;20677;-79
2022/01/30 02:29:59;;;;;;;2.75;1.42;;;6.50;99.90;;;;;;5002586;28;20183;-82
2022/01/30 02:32:25;;;;;;;1.70;1.50;;;6.50;99.90;;;;;;4999789;28;20222;-84
2022/01/30 02:34:51;;;;;;;3.42;2.28;;;;;;;;;;5003068;28;20745;-84
2022/01/30 02:37:18;;;;;;;3.90;1.70;;;;;;;;;;4997657;28;20260;-79
2022/01/30 02:39:44;;;;;;;2.17;1.98;;;6.40;99.90;;;;;;5005017;28;20432;-84
2022/01/30 02:42:14;;;;;;;3.43;2.80;;;6.40;99.90;;;;;;4999546;28;20195;-84
2022/01/30 02:44:51;;;;;;;1.88;1.77;;;;;;;;;;4997516;28;20553;-82
2022/01/30 02:47:37;;;;;;;8.35;2.30;;;6.40;99.90;;;;;;4998331;28;20187;-82
2022/01/30 02:50:21;;;;;;;2.55;2.13;;;6.50;99.90;;;;;;4996400;28;20179;-81
2022/01/30 02:52:56;;;;;;;3.00;2.25;;;6.40;99.90;;;;;;5003323;28;20241;-81
2022/01/30 02:55:23;;;;;;;2.38;1.98;;;6.40;99.90;;;;;;4996874;28;20236;-82
2022/01/30 02:57:49;;;;;;;3.58;2.63;;;;;;;;;;4997924;28;20222;-83
2022/01/30 03:00:14;;;;;;;2.40;1.85;;;6.30;99.90;;;;;;4998391;28;20269;-79
2022/01/30 03:02:42;;;;;;;5.80;2.57;;;;;;;;;;4999611;28;20950;-81
2022/01/30 03:05:08;;;;;;;5.10;2.33;;;6.40;99.90;;;;;;4998289;28;20434;-84
2022/01/30 03:07:33;;;;;;;2.80;2.20;;;;;;;;;;4992901;28;20195;-82
2022/01/30 03:09:59;;;;;;;4.43;2.77;;;6.50;99.90;;;;;;4998816;28;20202;-80
2022/01/30 03:12:25;;;;;;;3.20;1.50;;;;;;;;;;5005092;28;20480;-81
2022/01/30 03:14:51;;;;;;;2.17;1.20;;;6.60;99.90;;;;;;4996561;28;20190;-82
2022/01/30 03:17:17;;;;;;;4.20;2.63;;;;;;;;;;4999579;28;20194;-83
2022/01/30 03:19:43;;;;;;;6.10;2.13;;;;;;;;;;5000882;28;20227;-83
2022/01/30 03:22:09;;;;;;;3.35;1.90;;;;;;;;;;5008327;28;20460;-80
2022/01/30 03:24:36;;;;;;;3.28;1.98;;;;;;;;;;5022040;28;20405;-80
2022/01/30 03:27:04;;;;;;;3.70;1.95;;;6.50;99.90;;;;;;5018429;28;20176;-82
2022/01/30 03:29:32;;;;;;;3.00;2.10;;;;;;;;;;5005149;28;20273;-81
2022/01/30 03:31:57;;;;;;;4.43;1.90;;;6.50;99.90;;;;;;5000631;28;20230;-82
2022/01/30 03:34:23;;;;;;;5.90;2.73;;;;;;;;;;5001068;28;20210;-83
2022/01/30 03:36:49;;;;;;;2.40;1.80;;;;;;;;;;4999043;28;20206;-81
2022/01/30 03:39:14;;;;;;;3.50;1.73;;;6.60;99.90;;;;;;5012082;28;20425;-84
2022/01/30 03:41:40;;;;;;;3.23;2.07;;;;;;;;;;5004770;28;20462;-81
2022/01/30 03:44:06;;;;;;;4.10;2.40;;;6.50;99.90;;;;;;5017663;28;20210;-81
2022/01/30 03:46:32;;;;;;;8.33;2.67;;;;;;;;;;5003232;28;20474;-81
2022/01/30 03:48:58;;;;;;;4.13;2.30;;;;;;;;;;4994831;28;20191;-79
2022/01/30 03:51:23;;;;;;;8.27;2.50;;;6.40;99.90;;;;;;4998303;28;20464;-82
2022/01/30 03:53:49;;;;;;;4.60;2.50;;;;;;;;;;4997939;28;20470;-82
2022/01/30 03:56:15;;;;;;;3.30;2.50;;;;;;;;;;5000970;28;20182;-81
2022/01/30 03:58:41;;;;;;;6.40;2.90;;;;;;;;;;4995619;28;20441;-83
2022/01/30 04:01:07;;;;;;;3.25;2.00;;;;;;;;;;4994047;28;21074;-83
2022/01/30 04:03:35;;;;;;;6.50;2.40;;;;;;;;;;5000410;28;20191;-81
2022/01/30 04:06:02;;;;;;;2.80;2.08;;;6.40;99.90;;;;;;4994918;28;20517;-80
2022/01/30 04:08:27;;;;;;;3.25;2.30;;;6.40;99.90;;;;;;5017768;28;20194;-83
2022/01/30 04:10:53;;;;;;;7.43;3.07;;;;;;;;;;5019045;27;20202;-82
2022/01/30 04:13:19;;;;;;;5.30;2.50;;;6.30;99.90;;;;;;5008332;28;20465;-83
2022/01/30 04:15:45;;;;;;;3.63;2.43;;;;;;;;;;4997622;28;20236;-85
2022/01/30 04:18:11;;;;;;;9.52;2.53;;;6.30;99.90;;;;;;5011022;27;20202;-82
2022/01/30 04:20:37;;;;;;;8.80;2.70;;;6.30;99.90;;;;;;5001878;28;20206;-83
2022/01/30 04:23:04;;;;;;;4.97;3.70;;;6.30;99.90;;;;;;4994500;28;20841;-84
2022/01/30 04:25:29;;;;;;;2.85;1.92;;;6.30;99.90;;;;;;4997378;28;20441;-82
2022/01/30 04:27:55;;;;;;;4.40;2.30;;;6.30;99.90;;;;;;4993336;28;20202;-80
2022/01/30 04:30:21;;;;;;;9.37;3.27;;;6.20;99.90;;;;;;4995048;28;20193;-80
2022/01/30 04:32:47;;;;;;;3.13;2.55;;;6.20;99.90;;;;;;4995080;28;20263;-82
2022/01/30 04:35:20;;;;;;;9.45;2.70;;;6.10;99.90;;;;;;4996204;28;20255;-83
2022/01/30 04:37:59;;;;;;;6.22;2.53;;;6.10;99.90;;;;;;4994325;28;20282;-81
2022/01/30 04:59:38;;;;;;;6.25;2.47;;;6.10;99.90;;;;;;4989497;28;20243;-80
2022/01/30 05:02:11;;;;;;;4.15;2.15;;;6.10;99.90;;;;;;4996981;28;20238;-80
2022/01/30 05:04:54;;;;;;;14.85;2.78;;;6.00;99.90;;;;;;4993032;28;20817;-83
2022/01/30 05:09:46;;;;;;;5.17;2.20;;;5.90;99.90;;;;;;5012674;28;20202;-80
2022/01/30 05:12:14;;;;;;;14.17;3.40;;;;;;;;;;5009819;28;20537;-78
2022/01/30 05:14:40;;;;;;;5.43;2.75;;;5.90;99.90;;;;;;4996701;28;20205;-83
2022/01/30 05:17:06;;;;;;;9.17;3.30;;;6.00;99.90;;;;;;4996176;28;20199;-77
2022/01/30 05:19:32;;;;;;;5.00;2.72;;;6.00;99.90;;;;;;5005297;28;20183;-82
2022/01/30 05:21:58;;;;;;;12.57;2.83;;;;;;;;;;4991825;28;20267;-81
2022/01/30 05:24:24;;;;;;;5.00;3.15;;;6.00;99.90;;;;;;4987086;28;20655;-81
2022/01/30 05:26:50;;;;;;;7.03;2.50;;;5.90;99.90;;;;;;4999229;28;20189;-83
2022/01/30 05:29:16;;;;;;;10.45;2.88;;;6.00;99.90;;;;;;4988457;28;20826;-81
2022/01/30 05:31:43;;;;;;;7.57;3.42;;;6.00;99.90;;;;;;4995707;28;20233;-82
2022/01/30 05:34:09;;;;;;;5.78;2.90;;;5.90;99.90;;;;;;4993845;28;20202;-81
2022/01/30 05:36:38;;;;;;;8.77;2.72;;;5.90;99.90;;;;;;5002989;28;20183;-82
2022/01/30 05:39:04;;;;;;;6.07;3.78;;;5.90;99.90;;;;;;5009361;28;20179;-82
2022/01/30 05:41:31;;;;;;;6.60;3.47;;;5.90;99.90;;;;;;4994578;28;20850;-83
2022/01/30 05:44:00;;;;;;;10.65;3.65;;;6.50;99.90;;;;;;4993975;28;20313;-83
2022/01/30 05:46:33;;;;;;;14.07;2.78;;;5.90;99.90;;;;;;4994515;28;20198;-81
2022/01/30 05:49:01;;;;;;;8.10;3.30;;;6.00;99.90;;;;;;4987842;28;20183;-83
2022/01/30 05:51:26;;;;;;;7.95;2.70;;;6.00;99.90;;;;;;4995188;28;20259;-82
2022/01/30 05:53:52;;;;;;;4.90;2.20;;;;;;;;;;4991402;28;20207;-81
2022/01/30 05:56:18;;;;;;;14.33;3.30;;;6.00;99.90;;;;;;5003456;28;20183;-83
2022/01/30 05:58:44;;;;;;;8.23;3.43;;;;;;;;;;4992217;28;20438;-79
2022/01/30 06:01:09;;;;;;;7.13;3.70;;;;;;;;;;5008492;28;20206;-82
2022/01/30 06:03:35;;;;;;;11.90;3.10;;;;;;;;;;4997495;28;20437;-84
2022/01/30 06:06:02;;;;;;;9.33;3.70;;;;;;;;;;4994081;28;20504;-81
2022/01/30 06:11:10;;;;;;;8.10;3.70;;;6.00;99.90;;;;;;4996335;28;20226;-81
2022/01/30 06:13:36;;;;;;;4.82;2.63;;;5.90;99.90;;;;;;4994436;28;20210;-82
2022/01/30 06:16:02;;;;;;;10.90;3.17;;;5.90;99.90;;;;;;4993463;28;20183;-82
2022/01/30 06:18:28;;;;;;;8.32;3.45;;;;;;;;;;5001248;28;20190;-81
2022/01/30 06:20:54;;;;;;;5.97;3.10;;;5.80;99.90;;;;;;4991729;28;20259;-81
2022/01/30 06:23:22;;;;;;;5.33;2.40;;;;;;;;;;4990849;28;20533;-84
2022/01/30 06:25:49;;;;;;;8.60;3.03;;;5.60;99.90;;;;;;4992268;28;20490;-82
2022/01/30 06:28:15;;;;;;;11.82;4.00;;;5.70;99.90;;;;;;5024365;28;20171;-78
2022/01/30 06:30:41;;;;;;;7.18;2.78;;;;;;;;;;5021181;27;20230;-79
2022/01/30 06:33:07;;;;;;;12.53;4.60;;;;;;;;;;5013546;28;20282;-86
2022/01/30 06:35:32;;;;;;;5.13;2.80;;;5.60;99.90;;;;;;5010574;28;20430;-84
2022/01/30 06:37:58;;;;;;;5.83;2.97;;;;;;;;;;5015454;28;20457;-79
2022/01/30 06:40:24;;;;;;;12.15;3.15;;;5.60;99.90;;;;;;5016421;28;20186;-81
2022/01/30 06:42:50;;;;;;;6.17;2.73;;;;;;;;;;5010389;28;20197;-82
2022/01/30 06:45:19;;;;;;;8.65;3.80;;;5.50;99.90;;;;;;5001175;28;20183;-82
2022/01/30 06:47:45;;;;;;;7.35;4.03;;;5.50;99.90;;;;;;4998605;28;20186;-82
2022/01/30 06:50:13;;;;;;;3.38;2.85;;;5.40;99.90;;;;;;4995535;28;20758;-81
2022/01/30 06:52:40;;;;;;;7.30;3.10;;;5.40;99.90;;;;;;4988401;28;20287;-83
2022/01/30 06:55:06;;;;;;;10.68;4.22;;;5.40;99.90;;;;;;4999428;28;20183;-80
2022/01/30 06:57:32;;;;;;;8.80;3.55;;;5.30;99.90;;;;;;4994629;28;20272;-83
2022/01/30 06:59:58;;;;;;;5.93;2.90;;;5.30;99.90;;;;;;4998222;28;20209;-84
2022/01/30 07:02:24;;;;;;;8.80;3.63;;;;;;;;;;4998347;28;20215;-84
2022/01/30 07:04:50;;;;;;;7.03;3.27;;;;;;;;;;4995826;28;20187;-83
2022/01/30 07:07:16;;;;;;;6.00;3.30;;;;;;;;;;4998702;28;21073;-81
2022/01/30 07:09:42;;;;;;;12.95;3.90;;;;;;;;;;4995103;28;20433;-84
2022/01/30 07:12:08;;;;;;;9.57;4.60;;;5.20;99.90;;;;;;4992452;28;20260;-83
2022/01/30 07:14:34;;;;;;;4.85;2.92;;;5.20;99.90;;;;;;4993826;28;21015;-81
2022/01/30 07:16:59;;;;;;;14.03;4.07;;;5.20;99.90;;;;;;4998374;28;20301;-86
2022/01/30 07:21:54;;;;;;;9.35;3.25;;;5.20;99.90;;;;;;4994057;28;20242;-86
2022/01/30 07:24:20;;;;;;;9.57;2.93;;;;;;;;;;4993234;28;20684;-86
2022/01/30 07:26:46;;;;;;;7.40;3.70;;;;;;;;;;4997378;28;20221;-86
2022/01/30 07:29:12;;;;;;;5.00;3.05;;;;;;;;;;4993504;28;20460;-86
2022/01/30 07:31:38;;;;;;;13.20;3.77;;;;;;;;;;4997603;28;20179;-86
2022/01/30 07:34:04;;;;;;;8.48;3.53;;;5.30;99.90;;;;;;4992476;28;20938;-87
2022/01/30 07:36:35;;;;;;;6.50;2.30;;;5.20;99.90;;;;;;5003960;28;20248;-85
2022/01/30 07:39:01;;;;;;;11.00;4.40;;;;;;;;;;4997868;28;20211;-86
2022/01/30 07:41:27;;;;;;;6.53;3.35;;;5.20;99.90;;;;;;4992573;28;20213;-86
2022/01/30 07:43:53;;;;;;;6.83;3.80;;;5.10;99.90;;;;;;4992814;28;20179;-85
2022/01/30 07:46:19;;;;;;;11.93;4.07;;;;;;;;;;4997713;28;20256;-85
2022/01/30 07:48:44;;;;;;;10.25;3.45;;;5.00;99.90;;;;;;4996733;28;20190;-86
2022/01/30 07:51:10;;;;;;;13.07;4.50;;;;;;;;;;4992467;28;20186;-86
2022/01/30 07:53:36;;;;;;;4.20;3.00;;;;;;;;;;4997152;28;20673;-86
2022/01/30 07:56:02;;;;;;;5.47;2.80;;;5.30;99.90;;;;;;4992964;28;20433;-87
2022/01/30 07:58:28;;;;;;;10.60;3.93;;;;;;;;;;4994955;28;20212;-87
2022/01/30 08:00:54;;;;;;;16.23;4.67;;;;;;;;;;4998025;28;20642;-86
2022/01/30 08:03:20;;;;;;;16.93;3.63;;;;;;;;;;4998788;28;20449;-86
2022/01/30 08:05:46;;;;;;;7.13;2.83;;;;;;;;;;5003852;28;20933;-86
2022/01/30 08:08:12;;;;;;;4.55;2.67;;;5.90;99.90;;;;;;4994367;28;20446;-87
2022/01/30 08:10:38;;;;;;;6.93;3.50;;;;;;;;;;4997732;28;20210;-86
2022/01/30 08:13:04;;;;;;;11.37;3.33;;;;;;;;;;4993160;28;20195;-85
2022/01/30 08:15:30;;;;;;;13.87;4.20;;;;;;;;;;5003291;28;20446;-86
2022/01/30 08:17:56;;;;;;;6.00;2.83;;;;;;;;;;4999208;28;20438;-86
2022/01/30 08:20:25;;;;;;;7.95;2.42;;;6.80;99.90;;;;;;4998927;28;20992;-86
2022/01/30 08:22:52;;;;;;;7.78;2.80;;;6.20;99.90;;;;;;5001664;28;20183;-87
2022/01/30 08:25:19;;;;;;;8.77;2.08;;;6.00;99.90;;;;;;4997339;28;20178;-87
2022/01/30 08:27:45;;;;;;;9.35;2.47;;;;;;;;;;4994070;28;20980;-87
2022/01/30 08:30:11;;;;;;;13.65;3.33;;;;;;;;;;5013494;28;20213;-86
2022/01/30 08:32:44;;;;;;;27.05;3.58;;;6.20;99.90;;;;;;4996944;28;20202;-87
2022/01/30 08:35:10;;;;;;;6.80;1.52;;;6.10;99.90;;;;;;4999304;28;20178;-86
2022/01/30 08:37:36;;;;;;;19.75;2.63;;;5.90;99.90;;;;;;5001281;28;20183;-86
2022/01/30 08:40:08;;;;;;;8.50;2.10;;;5.90;99.90;;;;;;4997360;28;20226;-87
2022/01/30 08:42:34;;;;;;;11.77;1.50;;;;;;;;;;4999817;28;20191;-86
2022/01/30 08:45:00;;;;;;;4.70;2.00;;;;;;;;;;4996146;28;20240;-85
2022/01/30 08:47:26;;;;;;;10.70;2.50;;;;;;;;;;4993799;28;20453;-87
2022/01/30 08:49:52;;;;;;;2.20;1.73;;;;;;;;;;5003982;28;20211;-86
2022/01/30 08:52:19;;;;;;;7.93;2.00;;;;;;;;;;4997565;28;20195;-87
2022/01/30 08:54:46;;;;;;;11.13;2.38;;;7.50;99.90;;;;;;4996346;28;20445;-86
2022/01/30 08:57:13;;;;;;;4.68;1.75;;;7.00;99.90;;;;;;5004316;28;20190;-85
2022/01/30 08:59:39;;;;;;;9.73;2.35;;;;;;;;;;4992020;28;20218;-86
2022/01/30 09:02:05;;;;;;;3.90;1.73;;;;;;;;;;5003263;28;20183;-85
2022/01/30 09:04:30;;;;;;;11.77;2.17;;;;;;;;;;4995558;28;20191;-87
2022/01/30 09:06:57;;;;;;;14.17;2.67;;;;;;;;;;4994173;28;20442;-87
2022/01/30 09:09:23;;;;;;;13.02;2.90;;;;;;;;;;4995211;28;20470;-86
2022/01/30 09:11:48;;;;;;;8.73;1.48;;;;;;;;;;4995463;28;20195;-86
2022/01/30 09:14:15;;;;;;;12.37;1.80;;;;;;;;;;5009540;28;21024;-87
2022/01/30 09:16:42;;;;;;;13.15;2.60;;;7.40;99.90;;;;;;5003022;28;20517;-86
2022/01/30 09:19:07;;;;;;;8.80;2.83;;;;;;;;;;4997670;28;20579;-86
2022/01/30 09:21:33;;;;;;;6.13;1.80;;;;;;;;;;5003389;28;20186;-86
2022/01/30 09:23:59;;;;;;;8.65;3.10;;;;;;;;;;5000109;28;20453;-86
2022/01/30 09:26:25;;;;;;;5.10;2.60;;;;;;;;;;5004007;28;20199;-85
2022/01/30 09:28:51;;;;;;;5.00;1.60;;;;;;;;;;4993226;28;20565;-87
2022/01/30 09:31:17;;;;;;;8.57;1.70;;;;;;;;;;5003608;28;20832;-88
2022/01/30 09:33:43;;;;;;;8.73;2.13;;;;;;;;;;4998723;28;20222;-87
2022/01/30 09:36:09;;;;;;;12.80;1.80;;;;;;;;;;4997393;28;20591;-88
2022/01/30 09:38:35;;;;;;;11.68;1.50;;;;;;;;;;5002985;28;20434;-87
2022/01/30 09:41:04;;;;;;;4.57;1.67;;;8.10;99.90;;;;;;4991946;28;20322;-87
2022/01/30 09:43:30;;;;;;;10.90;4.05;;;;;;;;;;4991649;28;20574;-87
2022/01/30 09:45:58;;;;;;;10.60;2.13;;;;;;;;;;4994696;28;21050;-87
2022/01/30 09:48:24;;;;;;;11.20;1.60;;;7.50;99.90;;;;;;4990746;28;20561;-87
2022/01/30 09:50:51;;;;;;;9.20;1.88;;;7.40;99.90;;;;;;5000548;28;20207;-87
2022/01/30 09:53:17;;;;;;;4.32;1.50;;;7.40;99.90;;;;;;4992383;28;20261;-88
2022/01/30 09:55:43;;;;;;;3.60;2.00;;;;;;;;;;4999314;28;20190;-88
2022/01/30 09:58:09;;;;;;;6.53;1.50;;;7.40;99.90;;;;;;4995165;28;20175;-87
2022/01/30 10:00:35;;;;;;;16.87;2.27;;;6.50;99.90;;;;;;4994426;28;20202;-86
2022/01/30 10:03:02;;;;;;;11.70;2.42;;;7.70;99.90;;;;;;4992845;28;20190;-88
2022/01/30 10:05:35;;;;;;;11.88;2.35;;;;;;;;;;4993830;28;20367;-87
2022/01/30 10:08:03;;;;;;;8.52;2.20;;;;;;;;;;4992777;28;20464;-87
2022/01/30 10:10:29;;;;;;;4.15;1.50;;;6.50;99.90;;;;;;4993667;28;20221;-87
2022/01/30 10:13:01;;;;;;;3.25;1.52;;;6.60;99.90;;;;;;4991307;28;20191;-89
2022/01/30 10:15:27;;;;;;;7.35;2.42;;;6.80;99.90;;;;;;4995421;28;20309;-88
2022/01/30 10:17:53;;;;;;;5.37;1.90;;;;;;;;;;4988773;28;20601;-88
2022/01/30 10:20:21;;;;;;;8.13;2.03;;;6.30;99.90;;;;;;4997167;28;21972;-87
2022/01/30 10:22:51;;;;;;;10.32;2.50;;;6.30;99.90;;;;;;5004586;28;20233;-87
2022/01/30 10:25:30;;;;;;;9.05;2.00;;;6.30;99.90;;;;;;5008276;28;21011;-88
2022/01/30 10:28:13;;;;;;;8.70;2.13;;;6.50;99.90;;;;;;4996784;28;20189;-87
2022/01/30 10:30:50;;;;;;;5.70;1.83;;;6.60;99.90;;;;;;4993644;28;20209;-87
2022/01/30 10:33:21;;;;;;;9.15;1.83;;;6.70;99.90;;;;;;4996180;28;20208;-88
2022/01/30 10:35:56;;;;;;;3.17;1.30;;;6.70;99.90;;;;;;5012867;27;20294;-88
2022/01/30 10:38:37;;;;;;;6.45;1.63;;;6.60;99.90;;;;;;4998300;28;20174;-86
2022/01/30 10:41:12;;;;;;;3.22;1.52;;;6.60;99.90;;;;;;5011592;27;20191;-88
2022/01/30 10:43:50;;;;;;;3.67;1.83;;;6.50;99.90;;;;;;4989126;28;20281;-87
2022/01/30 10:46:21;;;;;;;11.13;1.70;;;6.30;99.90;;;;;;5002940;28;20878;-87
2022/01/30 10:48:55;;;;;;;7.30;1.65;;;6.10;99.90;;;;;;4998439;28;20182;-86
2022/01/30 10:51:22;;;;;;;7.47;1.52;;;6.20;99.90;;;;;;4993090;28;20182;-88
2022/01/30 10:53:49;;;;;;;10.13;1.63;;;6.20;99.90;;;;;;4997684;28;20198;-86
2022/01/30 10:56:20;;;;;;;4.78;1.38;;;6.60;99.90;;;;;;4993050;28;20227;-87
2022/01/30 10:59:12;;;;;;;12.70;2.40;;;6.70;99.90;;;;;;4987662;28;20179;-88
2022/01/30 11:01:43;;;;;;;2.95;1.40;;;6.80;99.90;;;;;;5006155;28;20179;-87
2022/01/30 11:04:27;;;;;;;9.48;1.67;;;6.60;99.90;;;;;;4998602;28;20194;-87
2022/01/30 11:06:56;;;;;;;12.10;2.10;;;7.00;99.90;;;;;;4993370;28;20214;-87
2022/01/30 11:09:27;;;;;;;10.82;2.22;;;7.00;99.90;;;;;;5003694;28;20621;-87
2022/01/30 11:12:01;;;;;;;7.95;2.13;;;7.00;99.90;;;;;;4995131;28;20182;-86
2022/01/30 11:14:40;;;;;;;8.10;2.08;;;6.90;99.90;;;;;;4991702;28;20312;-87
2022/01/30 11:17:09;;;;;;;5.40;1.73;;;6.80;99.90;;;;;;4996721;28;20442;-87
2022/01/30 11:19:47;;;;;;;6.50;2.00;;;6.40;99.90;;;;;;4996793;28;20203;-87
2022/01/30 11:22:16;;;;;;;12.27;1.90;;;9.00;99.90;;;;;;4999807;28;20186;-87
2022/01/30 11:25:20;;;;;;;9.93;2.00;;;6.10;99.90;;;;;;4995608;28;20179;-90
2022/01/30 11:27:47;;;;;;;3.70;2.58;;;6.20;99.90;;;;;;4998415;28;20219;-89
2022/01/30 11:30:21;;;;;;;9.80;2.20;;;6.20;99.90;;;;;;5000531;28;20262;-89
2022/01/30 11:33:55;;;;;;;;;;;;;;;;;;;;;
2022/01/30 11:36:32;;;;;;;11.95;1.85;;;6.40;99.90;;;;;;5012230;28;20181;-88
2022/01/30 11:39:01;;;;;;;3.90;1.30;;;;;;;;;;4995070;28;20210;-88
2022/01/30 11:41:30;;;;;;;4.88;2.05;;;;;;;;;;5002630;28;20215;-89
2022/01/30 11:44:24;;;;;;;6.53;2.13;;;6.20;99.90;;;;;;5001461;28;20270;-88
2022/01/30 11:46:56;;;;;;;9.00;2.15;;;;;;;;;;4997908;28;20190;-87
2022/01/30 11:49:24;;;;;;;8.32;1.80;;;;;;;;;;5016685;28;20206;-89
2022/01/30 11:52:02;;;;;;;7.80;2.20;;;6.00;99.90;;;;;;5001201;28;20182;-90
2022/01/30 11:55:01;;;;;;;11.15;2.60;;;6.00;99.90;;;;;;5000503;28;20236;-89
2022/01/30 11:57:32;;;;;;;5.20;1.90;;;6.10;99.90;;;;;;5003613;28;20175;-92
2022/01/30 12:00:00;;;;;;;5.10;2.20;;;6.20;99.90;;;;;;5004964;28;20207;-88
2022/01/30 12:02:36;;;;;;;10.65;2.67;;;6.30;99.90;;;;;;4996655;28;20171;-90
2022/01/30 12:05:10;;;;;;;5.72;2.55;;;6.40;99.90;;;;;;5014146;28;20263;-88
2022/01/30 12:07:47;;;;;;;3.90;1.58;;;6.30;99.90;;;;;;5002897;28;20722;-87
2022/01/30 12:10:24;;;;;;;4.55;1.60;;;6.60;99.90;;;;;;4995841;28;20194;-89
2022/01/30 12:12:50;;;;;;;12.15;2.72;;;;;;;;;;5005433;28;20297;-88
2022/01/30 12:15:44;;;;;;;11.20;2.53;;;6.70;99.90;;;;;;5012370;28;20270;-89
2022/01/30 12:18:36;;;;;;;6.47;2.30;;;6.50;99.90;;;;;;5001118;28;21037;-89
2022/01/30 12:21:08;;;;;;;4.43;1.70;;;6.50;99.90;;;;;;5005670;28;20232;-88
2022/01/30 12:23:43;;;;;;;6.80;2.00;;;6.20;99.90;;;;;;4996846;28;20245;-88
2022/01/30 12:26:14;;;;;;;4.82;1.45;;;6.20;99.90;;;;;;5008166;28;21148;-89
2022/01/30 12:28:46;;;;;;;7.18;1.60;;;6.00;99.90;;;;;;4989782;28;20579;-88
2022/01/30 12:31:31;;;;;;;12.75;2.60;;;6.00;99.90;;;;;;4996012;28;20183;-88
2022/01/30 12:34:07;;;;;;;4.70;1.98;;;6.00;99.90;;;;;;4995609;28;20234;-89
2022/01/30 12:36:40;;;;;;;17.25;2.88;;;6.70;99.90;;;;;;4998241;28;20261;-89
2022/01/30 12:39:21;;;;;;;4.20;1.95;;;6.80;99.90;;;;;;4999396;28;20561;-88
2022/01/30 12:41:48;;;;;;;5.45;1.98;;;8.40;99.90;;;;;;4998540;28;20190;-88
2022/01/30 12:44:16;;;;;;;9.60;2.22;;;6.40;99.90;;;;;;5005036;28;20182;-89
2022/01/30 12:46:53;;;;;;;10.05;2.53;;;6.30;99.90;;;;;;4997658;28;20211;-88
2022/01/30 12:49:25;;;;;;;7.13;1.70;;;6.40;99.90;;;;;;5009349;28;20222;-88
2022/01/30 12:51:56;;;;;;;16.00;2.92;;;6.50;99.90;;;;;;4995518;28;20179;-89
2022/01/30 12:54:27;;;;;;;8.60;1.42;;;6.40;99.90;;;;;;4995915;28;21167;-88
2022/01/30 12:56:54;;;;;;;3.40;1.42;;;6.30;99.90;;;;;;5006676;28;20194;-88
2022/01/30 12:59:24;;;;;;;7.18;2.30;;;6.20;99.90;;;;;;4992450;28;20219;-88
2022/01/30 13:01:50;;;;;;;11.10;2.80;;;6.20;99.90;;;;;;4990904;28;20175;-88
2022/01/30 13:04:23;;;;;;;15.82;2.92;;;6.30;99.90;;;;;;4994125;28;20191;-89
2022/01/30 13:06:51;;;;;;;9.13;2.08;;;6.40;99.90;;;;;;4990486;28;20191;-86
2022/01/30 13:09:25;;;;;;;8.13;2.00;;;6.30;99.90;;;;;;4990212;28;20199;-90
2022/01/30 13:11:52;;;;;;;15.00;2.35;;;6.40;99.90;;;;;;4996239;28;20182;-86
2022/01/30 13:14:19;;;;;;;4.55;1.85;;;6.40;99.90;;;;;;4983754;28;20282;-89
2022/01/30 13:16:47;;;;;;;4.25;1.42;;;6.60;99.90;;;;;;4989517;28;20286;-88
2022/01/30 13:19:27;;;;;;;8.60;4.53;;;6.70;99.90;;;;;;4995733;28;20822;-87
2022/01/30 13:21:53;;;;;;;9.38;1.90;;;;;;;;;;4990927;28;20551;-87
2022/01/30 13:24:20;;;;;;;13.13;1.70;;;6.50;99.90;;;;;;4995797;28;20235;-88
2022/01/30 13:26:48;;;;;;;7.68;1.95;;;6.60;99.90;;;;;;4992622;28;20470;-87
2022/01/30 13:29:21;;;;;;;13.85;2.75;;;6.50;99.90;;;;;;4998016;28;20217;-88
2022/01/30 13:31:52;;;;;;;12.75;2.55;;;6.60;99.90;;;;;;4997556;28;20190;-89
2022/01/30 13:34:21;;;;;;;7.72;1.45;;;6.50;99.90;;;;;;4993448;28;20206;-89
2022/01/30 13:36:54;;;;;;;9.00;2.00;;;6.40;99.90;;;;;;4994175;28;21152;-88
2022/01/30 13:39:34;;;;;;;9.85;3.10;;;6.40;99.90;;;;;;4993752;28;20217;-89
2022/01/30 13:46:56;;;;;;;7.32;1.90;;;6.50;99.90;;;;;;5003826;28;21089;-90
2022/01/30 13:48:11;;;;;;;13.55;2.03;;;6.40;99.90;;;;;;4988306;28;20195;-88
2022/01/30 13:51:03;;;;;;;7.40;2.50;;;6.40;99.90;;;;;;4997013;28;20293;-88
2022/01/30 13:53:31;;;;;;;14.80;2.35;;;6.30;99.90;;;;;;4995572;28;20239;-87
2022/01/30 13:56:07;;;;;;;5.43;2.63;;;6.40;99.90;;;;;;5002693;28;20183;-89
2022/01/30 13:58:43;;;;;;;8.35;2.17;;;6.60;99.90;;;;;;4991143;28;20300;-89
2022/01/30 14:01:20;;;;;;;6.50;2.70;;;6.60;99.90;;;;;;4990776;28;20670;-88
2022/01/30 14:03:47;;;;;;;19.00;2.28;;;6.60;99.90;;;;;;4993076;28;20182;-89
2022/01/30 14:06:22;;;;;;;7.38;2.35;;;6.60;99.90;;;;;;4999009;28;20191;-88
2022/01/30 14:08:53;;;;;;;5.13;2.20;;;6.60;99.90;;;;;;4996750;28;20193;-88
2022/01/30 14:11:26;;;;;;;5.03;1.85;;;6.70;99.90;;;;;;4997280;28;20194;-89
2022/01/30 14:13:57;;;;;;;11.27;5.05;;;;;;;;;;4990983;28;20207;-88
2022/01/30 14:16:39;;;;;;;6.10;2.00;;;6.70;99.90;;;;;;4996454;28;20173;-87
2022/01/30 14:19:29;;;;;;;7.78;2.10;;;6.70;99.90;;;;;;4997885;28;20199;-90
2022/01/30 14:22:10;;;;;;;7.93;2.20;;;6.70;99.90;;;;;;4999959;28;20248;-88
2022/01/30 14:24:49;;;;;;;9.00;2.13;;;6.70;99.90;;;;;;4995688;28;20183;-89
2022/01/30 14:27:15;;;;;;;11.27;2.33;;;6.40;99.90;;;;;;4996029;28;20244;-89
2022/01/30 14:29:41;;;;;;;10.27;1.93;;;6.50;99.90;;;;;;4992682;28;20206;-87
2022/01/30 14:32:20;;;;;;;7.70;1.67;;;6.40;99.90;;;;;;4993599;28;21198;-88